createdAt,value
2019-04-06T00:01:10.603Z,57.38
2019-04-06T00:03:39.734Z,57.33
2019-04-06T00:06:08.850Z,57.34
2019-04-06T00:08:38.048Z,57.33
2019-04-06T00:11:07.163Z,57.38
2019-04-06T00:13:36.371Z,57.38
2019-04-06T00:16:05.557Z,57.37
2019-04-06T00:18:34.732Z,57.36
2019-04-06T00:21:03.845Z,57.36
2019-04-06T00:23:33.049Z,57.36
2019-04-06T00:26:02.241Z,57.34
2019-04-06T00:28:31.467Z,57.28
2019-04-06T00:31:07.364Z,57.33
2019-04-06T00:33:36.515Z,57.31
2019-04-06T00:36:06.182Z,57.31
2019-04-06T00:38:35.386Z,57.35
2019-04-06T00:41:04.692Z,57.33
2019-04-06T00:43:33.896Z,57.39
2019-04-06T00:46:03.036Z,57.40
2019-04-06T00:48:32.161Z,57.48
2019-04-06T00:51:01.380Z,57.41
2019-04-06T00:53:30.563Z,57.49
2019-04-06T00:55:59.680Z,57.48
2019-04-06T00:58:28.864Z,57.47
2019-04-06T01:00:57.962Z,57.49
2019-04-06T01:03:27.223Z,57.49
2019-04-06T01:05:56.297Z,57.44
2019-04-06T01:08:25.416Z,57.47
2019-04-06T01:10:54.517Z,57.40
2019-04-06T01:13:23.628Z,57.37
2019-04-06T01:15:52.824Z,57.41
2019-04-06T01:18:21.918Z,57.37
2019-04-06T01:20:51.053Z,57.36
2019-04-06T01:23:20.175Z,57.42
2019-04-06T01:25:49.377Z,57.43
2019-04-06T01:28:18.499Z,57.42
2019-04-06T01:30:47.708Z,57.46
2019-04-06T01:33:16.836Z,57.52
2019-04-06T01:35:46.256Z,57.61
2019-04-06T01:38:15.380Z,57.82
2019-04-06T01:40:44.502Z,57.94
2019-04-06T01:43:13.623Z,58.04
2019-04-06T01:45:42.708Z,58.17
2019-04-06T01:48:11.981Z,58.17
2019-04-06T01:50:41.127Z,58.18
2019-04-06T01:53:10.247Z,58.18
2019-04-06T01:55:39.394Z,58.25
2019-04-06T01:58:08.510Z,58.39
2019-04-06T02:00:39.306Z,58.37
2019-04-06T02:03:08.440Z,58.43
2019-04-06T02:05:37.565Z,58.38
2019-04-06T02:08:06.657Z,58.29
2019-04-06T02:10:35.775Z,58.18
2019-04-06T02:13:04.879Z,58.12
2019-04-06T02:15:34.149Z,58.07
2019-04-06T02:18:03.239Z,57.99
2019-04-06T02:20:32.376Z,57.89
2019-04-06T02:23:01.513Z,57.85
2019-04-06T02:25:30.656Z,57.79
2019-04-06T02:27:59.870Z,57.71
2019-04-06T02:30:35.215Z,57.63
2019-04-06T02:33:32.274Z,57.59
2019-04-06T02:36:10.240Z,57.63
2019-04-06T02:38:51.280Z,57.50
2019-04-06T02:41:39.345Z,57.46
2019-04-06T02:44:08.422Z,57.48
2019-04-06T02:46:37.693Z,57.51
2019-04-06T02:49:06.828Z,57.46
2019-04-06T02:51:36.143Z,57.43
2019-04-06T02:54:05.499Z,57.44
2019-04-06T02:56:45.447Z,57.39
2019-04-06T02:59:05.630Z,57.37
2019-04-06T03:01:34.764Z,57.35
2019-04-06T03:04:03.900Z,57.47
2019-04-06T03:06:33.014Z,57.49
2019-04-06T03:09:02.125Z,57.52
2019-04-06T03:11:31.406Z,57.58
2019-04-06T03:14:00.490Z,57.60
2019-04-06T03:16:29.793Z,57.52
2019-04-06T03:18:58.921Z,57.46
2019-04-06T03:21:28.058Z,57.37
2019-04-06T03:23:57.223Z,57.30
2019-04-06T03:26:26.352Z,57.30
2019-04-06T03:28:55.739Z,57.29
2019-04-06T03:31:27.759Z,57.25
2019-04-06T03:33:55.777Z,57.20
2019-04-06T03:36:24.907Z,57.13
2019-04-06T03:38:53.977Z,57.19
2019-04-06T03:41:23.090Z,57.14
2019-04-06T03:43:52.224Z,57.12
2019-04-06T03:46:21.572Z,57.03
2019-04-06T03:48:50.697Z,56.99
2019-04-06T03:51:19.829Z,56.96
2019-04-06T03:53:48.951Z,56.89
2019-04-06T03:56:18.079Z,56.85
2019-04-06T03:58:47.185Z,56.83
2019-04-06T04:01:16.279Z,56.79
2019-04-06T04:03:45.511Z,56.79
2019-04-06T04:06:14.574Z,56.82
2019-04-06T04:08:43.728Z,56.81
2019-04-06T04:11:12.798Z,56.79
2019-04-06T04:13:41.938Z,56.81
2019-04-06T04:16:11.025Z,56.84
2019-04-06T04:18:40.284Z,56.82
2019-04-06T04:21:09.427Z,56.77
2019-04-06T04:23:38.649Z,56.71
2019-04-06T04:26:07.784Z,56.70
2019-04-06T04:28:36.886Z,56.72
2019-04-06T04:31:06.010Z,56.70
2019-04-06T04:33:35.177Z,56.72
2019-04-06T04:36:04.278Z,56.72
2019-04-06T04:38:33.419Z,56.71
2019-04-06T04:41:02.581Z,56.67
2019-04-06T04:43:32.806Z,56.70
2019-04-06T04:46:01.880Z,56.71
2019-04-06T04:48:31.197Z,56.73
2019-04-06T04:51:00.328Z,56.76
2019-04-06T04:53:29.497Z,56.81
2019-04-06T04:55:58.600Z,56.86
2019-04-06T04:58:27.825Z,56.86
2019-04-06T05:00:56.930Z,56.85
2019-04-06T05:03:26.087Z,56.86
2019-04-06T05:05:55.198Z,56.83
2019-04-06T05:08:24.352Z,56.82
2019-04-06T05:10:53.425Z,56.82
2019-04-06T05:13:22.530Z,56.80
2019-04-06T05:16:22.736Z,56.79
2019-04-06T05:18:51.938Z,56.78
2019-04-06T05:21:20.996Z,56.75
2019-04-06T05:23:50.141Z,56.75
2019-04-06T05:26:19.218Z,56.76
2019-04-06T05:28:48.318Z,56.76
2019-04-06T05:31:17.403Z,56.71
2019-04-06T05:33:46.532Z,56.73
2019-04-06T05:36:15.720Z,56.70
2019-04-06T05:38:44.806Z,56.62
2019-04-06T05:41:13.956Z,56.61
2019-04-06T05:43:43.077Z,56.59
2019-04-06T05:46:12.178Z,56.50
2019-04-06T05:48:41.317Z,56.43
2019-04-06T05:51:10.429Z,56.40
2019-04-06T05:53:39.745Z,56.40
2019-04-06T05:56:08.987Z,56.41
2019-04-06T05:58:39.915Z,56.26
2019-04-06T06:01:11.037Z,56.13
2019-04-06T06:03:41.184Z,56.21
2019-04-06T06:06:12.585Z,56.23
2019-04-06T06:08:41.673Z,56.12
2019-04-06T06:11:10.762Z,56.04
2019-04-06T06:13:40.068Z,55.99
2019-04-06T06:16:11.523Z,55.97
2019-04-06T06:18:42.694Z,55.92
2019-04-06T06:21:14.720Z,55.83
2019-04-06T06:23:44.219Z,55.76
2019-04-06T06:26:13.588Z,55.69
2019-04-06T06:28:42.807Z,55.67
2019-04-06T06:31:11.969Z,55.57
2019-04-06T06:33:41.053Z,55.41
2019-04-06T06:36:10.212Z,55.32
2019-04-06T06:38:39.467Z,55.13
2019-04-06T06:41:08.668Z,55.04
2019-04-06T06:43:37.899Z,54.92
2019-04-06T06:46:07.007Z,54.80
2019-04-06T06:48:36.190Z,54.58
2019-04-06T06:51:05.462Z,54.51
2019-04-06T06:53:34.668Z,54.40
2019-04-06T06:56:03.811Z,54.23
2019-04-06T06:58:33.031Z,54.02
2019-04-06T07:01:03.452Z,53.91
2019-04-06T07:03:32.861Z,53.86
2019-04-06T07:06:02.042Z,53.85
2019-04-06T07:08:31.169Z,53.70
2019-04-06T07:11:00.332Z,53.57
2019-04-06T07:13:32.253Z,53.48
2019-04-06T07:16:01.483Z,53.35
2019-04-06T07:18:30.794Z,53.14
2019-04-06T07:20:59.941Z,53.04
2019-04-06T07:23:29.042Z,52.85
2019-04-06T07:25:59.048Z,52.68
2019-04-06T07:28:37.586Z,52.56
2019-04-06T07:30:59.438Z,52.59
2019-04-06T07:33:28.780Z,52.55
2019-04-06T07:35:58.202Z,52.24
2019-04-06T07:38:27.459Z,51.92
2019-04-06T07:40:56.611Z,51.75
2019-04-06T07:43:25.813Z,51.70
2019-04-06T07:45:55.244Z,51.83
2019-04-06T07:48:24.491Z,51.70
2019-04-06T07:50:54.381Z,51.59
2019-04-06T07:53:24.286Z,51.64
2019-04-06T07:55:53.459Z,51.59
2019-04-06T07:58:22.798Z,51.56
2019-04-06T08:00:52.018Z,51.40
2019-04-06T08:03:21.185Z,51.41
2019-04-06T08:05:50.331Z,51.26
2019-04-06T08:08:19.469Z,50.91
2019-04-06T08:10:48.648Z,50.66
2019-04-06T08:13:18.003Z,50.79
2019-04-06T08:15:47.186Z,50.63
2019-04-06T08:18:16.896Z,50.64
2019-04-06T08:20:46.092Z,50.54
2019-04-06T08:23:15.204Z,50.11
2019-04-06T08:25:44.298Z,50.09
2019-04-06T08:28:13.477Z,50.11
2019-04-06T08:30:46.008Z,49.88
2019-04-06T08:33:13.497Z,49.84
2019-04-06T08:35:42.714Z,49.59
2019-04-06T08:38:11.874Z,49.29
2019-04-06T08:40:41.108Z,48.98
2019-04-06T08:43:10.320Z,48.50
2019-04-06T08:45:39.527Z,47.88
2019-04-06T08:48:08.751Z,47.84
2019-04-06T08:50:39.738Z,47.69
2019-04-06T08:53:08.999Z,48.05
2019-04-06T08:55:38.985Z,48.28
2019-04-06T08:58:09.239Z,48.40
2019-04-06T09:00:38.349Z,48.41
2019-04-06T09:03:07.494Z,48.14
2019-04-06T09:05:36.896Z,47.82
2019-04-06T09:08:06.100Z,47.35
2019-04-06T09:10:35.350Z,46.81
2019-04-06T09:13:04.527Z,46.46
2019-04-06T09:15:33.717Z,46.11
2019-04-06T09:18:02.975Z,45.94
2019-04-06T09:20:32.449Z,45.62
2019-04-06T09:23:02.151Z,45.92
2019-04-06T09:25:32.589Z,46.02
2019-04-06T09:28:02.189Z,46.05
2019-04-06T09:30:31.931Z,45.98
2019-04-06T09:33:01.156Z,46.47
2019-04-06T09:35:30.650Z,46.58
2019-04-06T09:38:00.072Z,46.52
2019-04-06T09:40:29.260Z,46.69
2019-04-06T09:42:58.637Z,46.66
2019-04-06T09:45:53.109Z,46.53
2019-04-06T09:48:36.289Z,46.32
2019-04-06T09:51:27.478Z,45.98
2019-04-06T09:54:21.770Z,45.65
2019-04-06T09:57:10.004Z,45.66
2019-04-06T10:00:10.082Z,45.68
2019-04-06T10:02:58.098Z,45.69
2019-04-06T10:05:48.571Z,45.53
2019-04-06T10:08:48.687Z,45.47
2019-04-06T10:11:35.591Z,45.64
2019-04-06T10:14:26.776Z,45.54
2019-04-06T10:17:23.746Z,45.56
2019-04-06T10:20:10.624Z,45.40
2019-04-06T10:22:57.358Z,44.67
2019-04-06T10:25:57.381Z,44.49
2019-04-06T10:28:43.915Z,43.81
2019-04-06T10:31:31.934Z,43.33
2019-04-06T10:34:28.799Z,42.93
2019-04-06T10:37:15.890Z,42.37
2019-04-06T10:40:12.022Z,42.41
2019-04-06T10:43:01.999Z,42.15
2019-04-06T10:45:53.811Z,42.07
2019-04-06T10:48:44.653Z,42.38
2019-04-06T10:51:35.546Z,42.12
2019-04-06T10:54:28.088Z,41.77
2019-04-06T10:57:17.436Z,41.06
2019-04-06T11:00:02.304Z,40.50
2019-04-06T11:02:46.289Z,39.47
2019-04-06T11:05:46.265Z,37.78
2019-04-06T11:08:34.299Z,36.82
2019-04-06T11:11:18.046Z,36.46
2019-04-06T11:14:02.069Z,36.56
2019-04-06T11:16:56.018Z,36.57
2019-04-06T11:20:02.039Z,36.28
2019-04-06T11:22:50.136Z,36.02
2019-04-06T11:25:56.064Z,35.07
2019-04-06T11:28:37.229Z,33.90
2019-04-06T11:31:23.866Z,32.57
2019-04-06T11:34:07.303Z,31.47
2019-04-06T11:36:53.842Z,29.98
2019-04-06T11:39:39.975Z,30.62
2019-04-06T11:42:30.919Z,30.88
2019-04-06T11:45:19.040Z,31.67
2019-04-06T11:48:12.539Z,32.53
2019-04-06T11:53:52.483Z,33.20
2019-04-06T11:56:38.987Z,32.77
2019-04-06T11:59:19.570Z,32.59
2019-04-06T12:01:56.837Z,33.05
2019-04-06T12:04:38.839Z,33.18
2019-04-06T12:07:44.908Z,33.22
2019-04-06T12:10:28.253Z,33.24
2019-04-06T12:13:19.207Z,33.04
2019-04-06T12:16:13.367Z,32.36
2019-04-06T12:18:54.708Z,32.21
2019-04-06T12:21:34.249Z,31.29
2019-04-06T12:24:25.869Z,30.79
2019-04-06T12:27:25.942Z,31.06
2019-04-06T12:30:05.289Z,30.60
2019-04-06T12:32:43.766Z,30.35
2019-04-06T12:35:30.240Z,30.45
2019-04-06T12:38:25.374Z,30.68
2019-04-06T12:41:12.311Z,30.39
2019-04-06T12:44:03.431Z,30.90
2019-04-06T12:46:49.925Z,31.24
2019-04-06T12:49:27.651Z,31.54
2019-04-06T12:52:11.448Z,31.74
2019-04-06T12:55:03.815Z,31.96
2019-04-06T12:57:53.444Z,32.68
2019-04-06T13:00:54.359Z,32.69
2019-04-06T13:03:49.497Z,33.10
2019-04-06T13:06:44.165Z,33.55
2019-04-06T13:09:26.825Z,33.58
2019-04-06T13:12:02.472Z,34.09
2019-04-06T13:14:49.079Z,34.48
2019-04-06T13:17:43.058Z,34.51
2019-04-06T13:20:35.765Z,34.61
2019-04-06T13:23:26.933Z,34.70
2019-04-06T13:26:04.273Z,34.63
2019-04-06T13:28:57.959Z,34.37
2019-04-06T13:31:46.142Z,34.49
2019-04-06T13:34:34.208Z,34.33
2019-04-06T13:37:19.377Z,34.75
2019-04-06T13:40:13.653Z,34.84
2019-04-06T13:43:21.221Z,35.31
2019-04-06T13:46:07.938Z,35.95
2019-04-06T13:48:56.273Z,36.17
2019-04-06T13:51:36.231Z,36.19
2019-04-06T13:54:39.287Z,36.09
2019-04-06T13:57:39.173Z,35.89
2019-04-06T14:00:20.515Z,35.22
2019-04-06T14:03:14.826Z,35.36
2019-04-06T14:06:15.053Z,35.34
2019-04-06T14:09:06.660Z,34.99
2019-04-06T14:12:09.992Z,34.76
2019-04-06T14:14:58.048Z,34.24
2019-04-06T14:17:44.504Z,34.22
2019-04-06T14:20:38.886Z,33.96
2019-04-06T14:23:32.933Z,33.99
2019-04-06T14:26:32.982Z,33.73
2019-04-06T14:29:18.383Z,33.86
2019-04-06T14:32:09.266Z,33.99
2019-04-06T14:35:06.125Z,34.01
2019-04-06T14:37:57.225Z,33.89
2019-04-06T14:41:03.755Z,34.07
2019-04-06T14:43:50.482Z,34.00
2019-04-06T14:46:38.134Z,33.98
2019-04-06T14:49:30.733Z,33.82
2019-04-06T14:52:06.132Z,33.95
2019-04-06T14:54:41.556Z,34.01
2019-04-06T14:57:25.888Z,33.84
2019-04-06T15:00:11.879Z,33.63
2019-04-06T15:03:11.939Z,33.69
2019-04-06T15:06:02.685Z,33.80
2019-04-06T15:08:45.573Z,33.96
2019-04-06T15:11:37.206Z,34.09
2019-04-06T15:14:25.340Z,34.09
2019-04-06T15:17:12.901Z,34.22
2019-04-06T15:19:59.759Z,34.45
2019-04-06T15:22:50.581Z,34.63
2019-04-06T15:25:38.334Z,34.69
2019-04-06T15:28:26.278Z,34.57
2019-04-06T15:31:23.398Z,34.54
2019-04-06T15:34:09.863Z,34.52
2019-04-06T15:37:01.061Z,34.48
2019-04-06T15:39:52.043Z,34.50
2019-04-06T15:42:41.612Z,34.64
2019-04-06T15:45:29.696Z,34.61
2019-04-06T15:48:37.450Z,34.72
2019-04-06T15:51:14.530Z,34.63
2019-04-06T15:54:01.596Z,34.63
2019-04-06T15:56:40.611Z,34.58
2019-04-06T15:59:37.826Z,34.38
2019-04-06T16:02:22.653Z,34.01
2019-04-06T16:05:00.773Z,34.27
2019-04-06T16:07:52.618Z,34.41
2019-04-06T16:10:46.981Z,34.72
2019-04-06T16:13:23.742Z,34.55
2019-04-06T16:16:12.060Z,34.74
2019-04-06T16:18:54.181Z,34.88
2019-04-06T16:21:41.038Z,35.14
2019-04-06T16:24:29.039Z,35.06
2019-04-06T16:27:17.227Z,35.48
2019-04-06T16:30:11.051Z,35.75
2019-04-06T16:32:49.059Z,35.95
2019-04-06T16:35:49.455Z,36.14
2019-04-06T16:38:30.175Z,36.21
2019-04-06T16:41:24.040Z,36.24
2019-04-06T16:44:12.244Z,36.33
2019-04-06T16:47:06.091Z,36.52
2019-04-06T16:49:51.149Z,36.64
2019-04-06T16:52:37.119Z,36.83
2019-04-06T16:55:17.710Z,37.07
2019-04-06T16:58:17.734Z,37.22
2019-04-06T17:01:08.589Z,37.23
2019-04-06T17:03:56.763Z,37.33
2019-04-06T17:06:47.910Z,37.45
2019-04-06T17:09:34.987Z,37.55
2019-04-06T17:12:23.712Z,37.52
2019-04-06T17:15:16.018Z,37.77
2019-04-06T17:18:10.340Z,37.81
2019-04-06T17:20:54.212Z,37.96
2019-04-06T17:23:34.250Z,38.09
2019-04-06T17:26:20.844Z,38.15
2019-04-06T17:29:17.893Z,38.21
2019-04-06T17:31:51.985Z,38.32
2019-04-06T17:34:56.679Z,38.60
2019-04-06T17:37:33.343Z,38.75
2019-04-06T17:40:21.368Z,38.82
2019-04-06T17:43:04.662Z,38.98
2019-04-06T17:45:55.651Z,39.04
2019-04-06T17:48:42.955Z,39.46
2019-04-06T17:51:36.664Z,39.91
2019-04-06T17:54:24.925Z,40.36
2019-04-06T17:57:18.034Z,41.01
2019-04-06T18:00:11.256Z,41.40
2019-04-06T18:03:10.238Z,41.76
2019-04-06T18:05:52.851Z,42.22
2019-04-06T18:08:36.477Z,42.51
2019-04-06T18:11:15.614Z,42.81
2019-04-06T18:13:52.966Z,43.10
2019-04-06T18:16:37.692Z,43.35
2019-04-06T18:19:08.405Z,43.57
2019-04-06T18:21:38.426Z,43.83
2019-04-06T18:24:07.550Z,44.09
2019-04-06T18:26:36.635Z,44.39
2019-04-06T18:29:06.186Z,44.61
2019-04-06T18:31:52.718Z,44.90
2019-04-06T18:34:21.844Z,45.16
2019-04-06T18:37:10.102Z,45.53
2019-04-06T18:39:39.330Z,45.67
2019-04-06T18:42:11.822Z,46.03
2019-04-06T18:44:41.065Z,46.29
2019-04-06T18:47:11.075Z,46.52
2019-04-06T18:49:42.460Z,46.73
2019-04-06T18:52:14.124Z,46.78
2019-04-06T18:54:43.876Z,47.18
2019-04-06T18:57:12.947Z,47.42
2019-04-06T18:59:42.605Z,47.63
2019-04-06T19:02:11.920Z,47.88
2019-04-06T19:04:41.042Z,48.07
2019-04-06T19:07:10.303Z,48.33
2019-04-06T19:09:39.708Z,48.53
2019-04-06T19:12:09.019Z,48.77
2019-04-06T19:14:38.390Z,48.98
2019-04-06T19:17:07.484Z,49.04
2019-04-06T19:19:36.624Z,49.08
2019-04-06T19:22:05.869Z,49.31
2019-04-06T19:24:35.472Z,49.53
2019-04-06T19:27:04.623Z,49.53
2019-04-06T19:29:33.971Z,49.74
2019-04-06T19:32:04.462Z,49.86
2019-04-06T19:34:33.703Z,50.07
2019-04-06T19:37:03.986Z,50.16
2019-04-06T19:39:33.146Z,50.26
2019-04-06T19:42:02.735Z,50.50
2019-04-06T19:44:31.898Z,50.64
2019-04-06T19:47:01.343Z,50.86
2019-04-06T19:49:30.695Z,50.97
2019-04-06T19:51:59.964Z,51.12
2019-04-06T19:54:29.825Z,51.18
2019-04-06T19:57:02.034Z,51.36
2019-04-06T19:59:33.845Z,51.53
2019-04-06T20:02:03.097Z,51.60
2019-04-06T20:04:32.421Z,51.70
2019-04-06T20:07:02.577Z,51.81
2019-04-06T20:09:31.991Z,51.92
2019-04-06T20:12:06.941Z,52.04
2019-04-06T20:14:31.952Z,52.25
2019-04-06T20:17:02.046Z,52.36
2019-04-06T20:19:31.558Z,52.40
2019-04-06T20:22:00.845Z,52.40
2019-04-06T20:24:30.067Z,52.42
2019-04-06T20:26:59.228Z,52.49
2019-04-06T20:29:28.557Z,52.58
2019-04-06T20:31:58.706Z,52.66
2019-04-06T20:34:27.934Z,52.74
2019-04-06T20:36:57.170Z,52.88
2019-04-06T20:39:26.254Z,53.10
2019-04-06T20:41:55.453Z,53.21
2019-04-06T20:44:25.123Z,53.41
2019-04-06T20:46:55.824Z,53.56
2019-04-06T20:49:24.891Z,53.68
2019-04-06T20:51:54.335Z,53.72
2019-04-06T20:54:24.548Z,53.79
2019-04-06T20:56:57.494Z,53.82
2019-04-06T20:59:24.537Z,53.85
2019-04-06T21:01:54.327Z,53.90
2019-04-06T21:04:23.676Z,53.97
2019-04-06T21:06:53.246Z,54.00
2019-04-06T21:09:22.468Z,54.05
2019-04-06T21:11:53.616Z,54.11
2019-04-06T21:14:22.379Z,54.20
2019-04-06T21:16:51.510Z,54.39
2019-04-06T21:19:20.584Z,54.57
2019-04-06T21:21:50.329Z,54.77
2019-04-06T21:24:20.711Z,54.98
2019-04-06T21:26:50.051Z,55.22
2019-04-06T21:29:20.043Z,55.42
2019-04-06T21:31:49.787Z,55.65
2019-04-06T21:34:19.397Z,55.71
2019-04-06T21:36:49.613Z,55.84
2019-04-06T21:39:18.886Z,55.91
2019-04-06T21:41:49.956Z,55.98
2019-04-06T21:44:20.355Z,55.91
2019-04-06T21:46:49.585Z,55.94
2019-04-06T21:49:18.975Z,56.13
2019-04-06T21:51:48.715Z,56.24
2019-04-06T21:54:17.791Z,56.24
2019-04-06T21:56:46.942Z,56.34
2019-04-06T21:59:16.803Z,56.44
2019-04-06T22:01:46.505Z,56.66
2019-04-06T22:04:23.717Z,56.79
2019-04-06T22:06:46.497Z,56.86
2019-04-06T22:09:16.345Z,56.82
2019-04-06T22:11:45.556Z,56.95
2019-04-06T22:14:14.916Z,57.09
2019-04-06T22:16:44.595Z,57.14
2019-04-06T22:19:13.743Z,57.17
2019-04-06T22:21:42.983Z,57.25
2019-04-06T22:24:12.116Z,57.25
2019-04-06T22:26:41.217Z,57.24
2019-04-06T22:29:10.353Z,57.20
2019-04-06T22:31:39.518Z,57.28
2019-04-06T22:34:09.258Z,57.46
2019-04-06T22:36:38.597Z,57.51
2019-04-06T22:39:09.050Z,57.49
2019-04-06T22:41:38.922Z,57.49
2019-04-06T22:44:08.569Z,57.45
2019-04-06T22:46:38.085Z,57.48
2019-04-06T22:49:07.807Z,57.42
2019-04-06T22:51:37.061Z,57.37
2019-04-06T22:54:06.766Z,57.28
2019-04-06T22:56:36.267Z,57.23
2019-04-06T22:59:05.468Z,57.06
2019-04-06T23:01:36.899Z,57.01
2019-04-06T23:04:27.615Z,56.95
2019-04-06T23:07:06.142Z,56.87
2019-04-06T23:09:35.326Z,56.85
2019-04-06T23:12:04.391Z,56.81
2019-04-06T23:14:35.070Z,56.80
2019-04-06T23:17:04.178Z,56.88
2019-04-06T23:19:33.711Z,57.00
2019-04-06T23:22:02.800Z,56.95
2019-04-06T23:24:32.952Z,56.99
2019-04-06T23:27:02.395Z,56.83
2019-04-06T23:29:31.485Z,56.71
2019-04-06T23:32:01.064Z,56.60
2019-04-06T23:34:30.343Z,56.47
2019-04-06T23:37:00.646Z,56.41
2019-04-06T23:39:29.888Z,56.37
2019-04-06T23:41:59.013Z,56.30
2019-04-06T23:44:28.161Z,56.24
2019-04-06T23:46:57.660Z,56.18
2019-04-06T23:49:27.041Z,56.13
2019-04-06T23:51:56.722Z,56.03
2019-04-06T23:54:26.366Z,55.96
2019-04-06T23:56:55.563Z,55.87
2019-04-06T23:59:24.769Z,55.80
